Kyra Mario, Greece

5:53 AM EET on February 20, 2017 (GMT +0200)
Fylakti Karditsas | | Change Station
Active Advisory: >

Elev 3383 ft 39.30 °N, 21.68 °E | Updated 3 minutes ago

Fog
Fog
38.1 °F
Feels Like 38 °F
N
3.0
Wind Variable Wind from SW
Gusts 11.0 mph

Today
High -- | Low -- °F
--% Chance of Precip.
Yesterday
High -- | Low -- °F
Precip. -- in
Pressure 30.15 in
Visibility 5.0 miles
Clouds Few 1000 ft
Scattered Clouds 2500 ft
Overcast 8000 ft
Windchill 38 °F
Dew Point 24 °F
Humidity 56%
Rainfall 0.05 in
Snow Depth Not available.
7:19 AM 6:16 PM
Last Quarter, 37% visible
METAR LGPZ 200320Z 00000KT 8000 -RA FEW010 SCT025 OVC080 09/07 Q1021
Pressure 30.15 in
Visibility 5.0 miles
Clouds Few 1000 ft
Scattered Clouds 2500 ft
Overcast 8000 ft
Windchill 38 °F
Dew Point 24 °F
Humidity 56%
Rainfall 0.05 in
Snow Depth Not available.
7:19 AM 6:16 PM
Last Quarter, 37% visible
METAR LGPZ 200320Z 00000KT 8000 -RA FEW010 SCT025 OVC080 09/07 Q1021

Get Your Daily Forecast Email!

Thanks for signing up!

Be on the lookout for a verification email in your inbox.

You'll start receiving the daily forecast at 8 AM.

×

10-Day Weather Forecast

×

Almanac

Astronomy

Feb. 20, 2017 Rise Set
Actual Time
Civil Twilight
Nautical Twilight
Astronomical Twilight
Moon
Length of Visible Light
Length of Day
Tomorrow will be .
, % of the Moon is Illuminated

Today's Extremes

Country Highs Country Lows

Community

WunderPhotos

Upload Photos

1,962,540 photos uploaded!

WunderBlog® & News

Nearby

Air Quality

  Air Quality AQ Index Pollutant
Not available.

Snow Depth

Station Depth Elevation

Earthquake Activity

City Distance Mag. Time & Date
Minimum magnitude displayed is 2.5.

Coastal Water Temperatures

Place Temperature

Stations

Nearby Weather Stations

Station Location Temp. Windchill Dew Point Humidity Wind Precip. Elev Updated Type